sensor_id;sensor_type;location;lat;lon;timestamp;pressure;altitude;pressure_sealevel;temperature;humidity
10638;BME280;47007;49.252;8.904;2023-04-06T00:00:12;100080.25;;;1.00;100.00
10638;BME280;47007;49.252;8.904;2023-04-06T00:00:53;100125.16;;;1.27;100.00
10638;BME280;47007;49.252;8.904;2023-04-06T00:01:35;100107.38;;;1.21;100.00
10638;BME280;47007;49.252;8.904;2023-04-06T00:02:17;100123.06;;;1.32;100.00
10638;BME280;47007;49.252;8.904;2023-04-06T00:02:59;100106.16;;;1.25;100.00
10638;BME280;47007;49.252;8.904;2023-04-06T00:03:41;99968.31;;;0.40;100.00
10638;BME280;47007;49.252;8.904;2023-04-06T00:04:23;100106.78;;;1.29;100.00
10638;BME280;47007;49.252;8.904;2023-04-06T00:05:05;100087.66;;;1.17;100.00
10638;BME280;47007;49.252;8.904;2023-04-06T00:05:47;100108.44;;;1.30;100.00
10638;BME280;47007;49.252;8.904;2023-04-06T00:06:30;100120.69;;;1.40;100.00
10638;BME280;47007;49.252;8.904;2023-04-06T00:07:11;100123.16;;;1.42;100.00
10638;BME280;47007;49.252;8.904;2023-04-06T00:07:53;100112.84;;;1.40;100.00
10638;BME280;47007;49.252;8.904;2023-04-06T00:08:37;100122.94;;;1.45;100.00
10638;BME280;47007;49.252;8.904;2023-04-06T00:09:19;100119.63;;;1.43;100.00
10638;BME280;47007;49.252;8.904;2023-04-06T00:10:01;100104.88;;;1.31;100.00
10638;BME280;47007;49.252;8.904;2023-04-06T00:10:43;100116.50;;;1.38;100.00
10638;BME280;47007;49.252;8.904;2023-04-06T00:11:24;100124.59;;;1.35;100.00
10638;BME280;47007;49.252;8.904;2023-04-06T00:12:07;100090.28;;;1.17;100.00
10638;BME280;47007;49.252;8.904;2023-04-06T00:12:48;100043.13;;;0.85;100.00
10638;BME280;47007;49.252;8.904;2023-04-06T00:13:30;100109.50;;;1.16;100.00
10638;BME280;47007;49.252;8.904;2023-04-06T00:14:12;100085.97;;;1.05;100.00
10638;BME280;47007;49.252;8.904;2023-04-06T00:14:54;100078.75;;;0.97;100.00
10638;BME280;47007;49.252;8.904;2023-04-06T00:15:35;100055.69;;;0.91;100.00
10638;BME280;47007;49.252;8.904;2023-04-06T00:16:17;100083.16;;;1.08;100.00
10638;BME280;47007;49.252;8.904;2023-04-06T00:16:59;100112.13;;;1.27;100.00
10638;BME280;47007;49.252;8.904;2023-04-06T00:17:41;100107.72;;;1.28;100.00
10638;BME280;47007;49.252;8.904;2023-04-06T00:18:23;100019.03;;;0.70;100.00
10638;BME280;47007;49.252;8.904;2023-04-06T00:19:04;100112.13;;;1.27;100.00
10638;BME280;47007;49.252;8.904;2023-04-06T00:19:46;100037.09;;;0.85;100.00
10638;BME280;47007;49.252;8.904;2023-04-06T00:20:28;100097.75;;;1.22;100.00
10638;BME280;47007;49.252;8.904;2023-04-06T00:21:13;100109.28;;;1.30;100.00
10638;BME280;47007;49.252;8.904;2023-04-06T00:21:56;100116.06;;;1.33;100.00
10638;BME280;47007;49.252;8.904;2023-04-06T00:22:37;100113.44;;;1.33;100.00
10638;BME280;47007;49.252;8.904;2023-04-06T00:23:19;100090.50;;;1.25;100.00
10638;BME280;47007;49.252;8.904;2023-04-06T00:24:01;100090.75;;;1.22;100.00
10638;BME280;47007;49.252;8.904;2023-04-06T00:24:42;100096.94;;;1.32;100.00
10638;BME280;47007;49.252;8.904;2023-04-06T00:25:24;100103.56;;;1.36;100.00
10638;BME280;47007;49.252;8.904;2023-04-06T00:26:06;100101.09;;;1.35;100.00
10638;BME280;47007;49.252;8.904;2023-04-06T00:26:48;99949.09;;;0.29;100.00
10638;BME280;47007;49.252;8.904;2023-04-06T00:27:30;100092.16;;;1.26;100.00
10638;BME280;47007;49.252;8.904;2023-04-06T00:28:11;100108.69;;;1.38;100.00
10638;BME280;47007;49.252;8.904;2023-04-06T00:28:53;100114.84;;;1.37;100.00
10638;BME280;47007;49.252;8.904;2023-04-06T00:29:35;100102.16;;;1.32;100.00
10638;BME280;47007;49.252;8.904;2023-04-06T00:30:16;100099.56;;;1.32;100.00
10638;BME280;47007;49.252;8.904;2023-04-06T00:30:58;100094.66;;;1.28;100.00
10638;BME280;47007;49.252;8.904;2023-04-06T00:31:40;100093.50;;;1.21;100.00
10638;BME280;47007;49.252;8.904;2023-04-06T00:32:22;100087.41;;;1.09;100.00
10638;BME280;47007;49.252;8.904;2023-04-06T00:33:03;100097.03;;;1.08;100.00
10638;BME280;47007;49.252;8.904;2023-04-06T00:33:45;100099.97;;;1.04;100.00
10638;BME280;47007;49.252;8.904;2023-04-06T00:34:27;100102.22;;;0.97;100.00
10638;BME280;47007;49.252;8.904;2023-04-06T00:35:09;100104.44;;;0.91;100.00
10638;BME280;47007;49.252;8.904;2023-04-06T00:35:51;100080.06;;;0.68;100.00
10638;BME280;47007;49.252;8.904;2023-04-06T00:36:33;100102.66;;;0.80;100.00
10638;BME280;47007;49.252;8.904;2023-04-06T00:37:14;100105.47;;;0.77;100.00
10638;BME280;47007;49.252;8.904;2023-04-06T00:37:57;100098.13;;;0.71;100.00
10638;BME280;47007;49.252;8.904;2023-04-06T00:38:38;100096.66;;;0.67;100.00
10638;BME280;47007;49.252;8.904;2023-04-06T00:39:20;100080.03;;;0.57;100.00
10638;BME280;47007;49.252;8.904;2023-04-06T00:40:02;100090.50;;;0.68;100.00
10638;BME280;47007;49.252;8.904;2023-04-06T00:40:44;100097.75;;;0.76;100.00
10638;BME280;47007;49.252;8.904;2023-04-06T00:41:26;100099.09;;;0.81;100.00
10638;BME280;47007;49.252;8.904;2023-04-06T00:42:12;100103.72;;;0.89;100.00
10638;BME280;47007;49.252;8.904;2023-04-06T00:42:55;100097.44;;;0.91;100.00
10638;BME280;47007;49.252;8.904;2023-04-06T00:43:36;100104.13;;;0.95;100.00
10638;BME280;47007;49.252;8.904;2023-04-06T00:44:19;100107.44;;;0.97;100.00
10638;BME280;47007;49.252;8.904;2023-04-06T00:45:01;100105.53;;;0.99;100.00
10638;BME280;47007;49.252;8.904;2023-04-06T00:45:44;100079.16;;;0.80;100.00
10638;BME280;47007;49.252;8.904;2023-04-06T00:46:26;100083.69;;;0.89;100.00
10638;BME280;47007;49.252;8.904;2023-04-06T00:47:08;100107.44;;;0.97;100.00
10638;BME280;47007;49.252;8.904;2023-04-06T00:47:50;100096.84;;;0.88;100.00
10638;BME280;47007;49.252;8.904;2023-04-06T00:48:32;100021.91;;;0.44;100.00
10638;BME280;47007;49.252;8.904;2023-04-06T00:49:14;100066.81;;;0.71;100.00
10638;BME280;47007;49.252;8.904;2023-04-06T00:49:56;100098.38;;;0.79;100.00
10638;BME280;47007;49.252;8.904;2023-04-06T00:50:38;100096.94;;;0.75;100.00
10638;BME280;47007;49.252;8.904;2023-04-06T00:51:20;100078.88;;;0.61;100.00
10638;BME280;47007;49.252;8.904;2023-04-06T00:52:01;100088.75;;;0.68;100.00
10638;BME280;47007;49.252;8.904;2023-04-06T00:52:43;100088.84;;;0.67;100.00
10638;BME280;47007;49.252;8.904;2023-04-06T00:53:25;100076.00;;;0.53;100.00
10638;BME280;47007;49.252;8.904;2023-04-06T00:54:07;100094.06;;;0.67;100.00
10638;BME280;47007;49.252;8.904;2023-04-06T00:54:50;100111.28;;;0.69;100.00
10638;BME280;47007;49.252;8.904;2023-04-06T00:55:34;100093.75;;;0.71;100.00
10638;BME280;47007;49.252;8.904;2023-04-06T00:56:17;100096.94;;;0.75;100.00
10638;BME280;47007;49.252;8.904;2023-04-06T00:57:04;100089.72;;;0.79;100.00
10638;BME280;47007;49.252;8.904;2023-04-06T00:57:46;100089.97;;;0.87;100.00
10638;BME280;47007;49.252;8.904;2023-04-06T00:58:28;100087.13;;;0.90;100.00
10638;BME280;47007;49.252;8.904;2023-04-06T00:59:17;100079.19;;;0.91;100.00
10638;BME280;47007;49.252;8.904;2023-04-06T00:59:59;100087.16;;;1.01;100.00
10638;BME280;47007;49.252;8.904;2023-04-06T01:00:41;100099.88;;;1.05;100.00
10638;BME280;47007;49.252;8.904;2023-04-06T01:01:29;100095.25;;;1.09;100.00
10638;BME280;47007;49.252;8.904;2023-04-06T01:02:15;100066.38;;;0.99;100.00
10638;BME280;47007;49.252;8.904;2023-04-06T01:03:02;100092.75;;;1.19;100.00
10638;BME280;47007;49.252;8.904;2023-04-06T01:03:52;100074.94;;;1.13;100.00
10638;BME280;47007;49.252;8.904;2023-04-06T01:04:34;100071.28;;;1.15;100.00
10638;BME280;47007;49.252;8.904;2023-04-06T01:05:18;100087.56;;;1.30;100.00
10638;BME280;47007;49.252;8.904;2023-04-06T01:06:06;100087.31;;;1.33;100.00
10638;BME280;47007;49.252;8.904;2023-04-06T01:06:52;100014.91;;;0.90;100.00
10638;BME280;47007;49.252;8.904;2023-04-06T01:07:36;100084.59;;;1.34;100.00
10638;BME280;47007;49.252;8.904;2023-04-06T01:08:25;100061.66;;;1.16;100.00
10638;BME280;47007;49.252;8.904;2023-04-06T01:09:12;100068.78;;;1.14;100.00
10638;BME280;47007;49.252;8.904;2023-04-06T01:09:54;100084.09;;;1.18;100.00
10638;BME280;47007;49.252;8.904;2023-04-06T01:10:39;100081.38;;;1.08;100.00
10638;BME280;47007;49.252;8.904;2023-04-06T01:11:35;100065.69;;;0.97;100.00
10638;BME280;47007;49.252;8.904;2023-04-06T01:12:19;100082.53;;;1.04;100.00
10638;BME280;47007;49.252;8.904;2023-04-06T01:13:01;100072.56;;;0.98;100.00
10638;BME280;47007;49.252;8.904;2023-04-06T01:14:06;100052.97;;;0.93;100.00
10638;BME280;47007;49.252;8.904;2023-04-06T01:15:09;100058.81;;;0.96;100.00
10638;BME280;47007;49.252;8.904;2023-04-06T01:15:55;100075.66;;;1.15;100.00
10638;BME280;47007;49.252;8.904;2023-04-06T01:17:03;100072.59;;;1.21;100.00
10638;BME280;47007;49.252;8.904;2023-04-06T01:17:47;100079.13;;;1.26;100.00
10638;BME280;47007;49.252;8.904;2023-04-06T01:18:31;100064.66;;;1.22;100.00
10638;BME280;47007;49.252;8.904;2023-04-06T01:19:27;100051.44;;;1.24;100.00
10638;BME280;47007;49.252;8.904;2023-04-06T01:20:09;100063.59;;;1.36;100.00
10638;BME280;47007;49.252;8.904;2023-04-06T01:20:52;100044.72;;;1.21;100.00
10638;BME280;47007;49.252;8.904;2023-04-06T01:21:36;100044.94;;;1.18;100.00
10638;BME280;47007;49.252;8.904;2023-04-06T01:22:53;100061.91;;;1.24;100.00
10638;BME280;47007;49.252;8.904;2023-04-06T01:23:35;100069.63;;;1.25;100.00
10638;BME280;47007;49.252;8.904;2023-04-06T01:24:17;100069.03;;;1.22;100.00
10638;BME280;47007;49.252;8.904;2023-04-06T01:25:25;100046.00;;;1.04;100.00
10638;BME280;47007;49.252;8.904;2023-04-06T01:26:21;100072.94;;;1.16;100.00
10638;BME280;47007;49.252;8.904;2023-04-06T01:27:05;100069.59;;;1.14;100.00
10638;BME280;47007;49.252;8.904;2023-04-06T01:28:06;100057.38;;;1.03;100.00
10638;BME280;47007;49.252;8.904;2023-04-06T01:29:07;100065.00;;;1.06;100.00
10638;BME280;47007;49.252;8.904;2023-04-06T01:29:49;100055.94;;;0.99;100.00
10638;BME280;47007;49.252;8.904;2023-04-06T01:30:46;100061.88;;;1.01;100.00
10638;BME280;47007;49.252;8.904;2023-04-06T01:31:40;100016.66;;;0.79;100.00
10638;BME280;47007;49.252;8.904;2023-04-06T01:32:22;100066.16;;;1.14;100.00
10638;BME280;47007;49.252;8.904;2023-04-06T01:33:05;100068.56;;;1.17;100.00
10638;BME280;47007;49.252;8.904;2023-04-06T01:34:10;100064.28;;;1.27;100.00
10638;BME280;47007;49.252;8.904;2023-04-06T01:34:51;100065.38;;;1.35;100.00
10638;BME280;47007;49.252;8.904;2023-04-06T01:35:34;100067.38;;;1.43;100.00
10638;BME280;47007;49.252;8.904;2023-04-06T01:36:26;100066.88;;;1.49;100.00
10638;BME280;47007;49.252;8.904;2023-04-06T01:37:20;100052.44;;;1.45;100.00
10638;BME280;47007;49.252;8.904;2023-04-06T01:38:02;100053.16;;;1.47;100.00
10638;BME280;47007;49.252;8.904;2023-04-06T01:38:47;100065.94;;;1.61;100.00
10638;BME280;47007;49.252;8.904;2023-04-06T01:39:31;100073.41;;;1.66;100.00
10638;BME280;47007;49.252;8.904;2023-04-06T01:40:16;100067.13;;;1.68;100.00
10638;BME280;47007;49.252;8.904;2023-04-06T01:41:04;100064.28;;;1.71;100.00
10638;BME280;47007;49.252;8.904;2023-04-06T01:41:56;100055.25;;;1.64;100.00
10638;BME280;47007;49.252;8.904;2023-04-06T01:42:39;100043.63;;;1.57;100.00
10638;BME280;47007;49.252;8.904;2023-04-06T01:43:22;100065.69;;;1.64;100.00
10638;BME280;47007;49.252;8.904;2023-04-06T01:44:17;100079.72;;;1.63;100.00
10638;BME280;47007;49.252;8.904;2023-04-06T01:45:09;99998.56;;;1.11;100.00
10638;BME280;47007;49.252;8.904;2023-04-06T01:45:51;100071.16;;;1.50;100.00
10638;BME280;47007;49.252;8.904;2023-04-06T01:46:35;100058.09;;;1.50;100.00
10638;BME280;47007;49.252;8.904;2023-04-06T01:47:18;100058.81;;;1.52;100.00
10638;BME280;47007;49.252;8.904;2023-04-06T01:48:00;100062.03;;;1.56;100.00
10638;BME280;47007;49.252;8.904;2023-04-06T01:48:43;100067.84;;;1.59;100.00
10638;BME280;47007;49.252;8.904;2023-04-06T01:49:36;100046.34;;;1.56;100.00
10638;BME280;47007;49.252;8.904;2023-04-06T01:50:18;100058.81;;;1.63;100.00
10638;BME280;47007;49.252;8.904;2023-04-06T01:51:00;100064.50;;;1.68;100.00
10638;BME280;47007;49.252;8.904;2023-04-06T01:51:46;100058.09;;;1.72;100.00
10638;BME280;47007;49.252;8.904;2023-04-06T01:52:28;100046.56;;;1.64;100.00
10638;BME280;47007;49.252;8.904;2023-04-06T01:53:10;100050.50;;;1.69;100.00
10638;BME280;47007;49.252;8.904;2023-04-06T01:53:53;100053.34;;;1.66;100.00
10638;BME280;47007;49.252;8.904;2023-04-06T01:54:38;100063.44;;;1.71;100.00
10638;BME280;47007;49.252;8.904;2023-04-06T01:55:26;100019.78;;;1.39;100.00
10638;BME280;47007;49.252;8.904;2023-04-06T01:56:30;100056.19;;;1.63;100.00
10638;BME280;47007;49.252;8.904;2023-04-06T01:57:19;100029.97;;;1.42;100.00
10638;BME280;47007;49.252;8.904;2023-04-06T01:58:07;99978.25;;;1.14;100.00
10638;BME280;47007;49.252;8.904;2023-04-06T01:58:52;100056.06;;;1.65;100.00
10638;BME280;47007;49.252;8.904;2023-04-06T01:59:34;100046.97;;;1.59;100.00
10638;BME280;47007;49.252;8.904;2023-04-06T02:00:21;100046.69;;;1.62;100.00
10638;BME280;47007;49.252;8.904;2023-04-06T02:01:07;100068.91;;;1.68;100.00
10638;BME280;47007;49.252;8.904;2023-04-06T02:02:01;100057.84;;;1.64;100.00
10638;BME280;47007;49.252;8.904;2023-04-06T02:02:45;100061.69;;;1.60;100.00
10638;BME280;47007;49.252;8.904;2023-04-06T02:03:33;100026.88;;;1.37;100.00
10638;BME280;47007;49.252;8.904;2023-04-06T02:04:20;100056.44;;;1.49;100.00
10638;BME280;47007;49.252;8.904;2023-04-06T02:05:08;100059.88;;;1.50;100.00
10638;BME280;47007;49.252;8.904;2023-04-06T02:05:50;100059.75;;;1.51;100.00
10638;BME280;47007;49.252;8.904;2023-04-06T02:06:40;100051.94;;;1.51;100.00
10638;BME280;47007;49.252;8.904;2023-04-06T02:07:24;100067.72;;;1.50;100.00
10638;BME280;47007;49.252;8.904;2023-04-06T02:08:07;100050.03;;;1.53;100.00
10638;BME280;47007;49.252;8.904;2023-04-06T02:08:52;100056.31;;;1.62;100.00
10638;BME280;47007;49.252;8.904;2023-04-06T02:09:34;100054.31;;;1.65;100.00
10638;BME280;47007;49.252;8.904;2023-04-06T02:10:17;100046.81;;;1.61;100.00
10638;BME280;47007;49.252;8.904;2023-04-06T02:10:59;100047.41;;;1.64;100.00
10638;BME280;47007;49.252;8.904;2023-04-06T02:11:47;100042.56;;;1.60;100.00
10638;BME280;47007;49.252;8.904;2023-04-06T02:12:29;100048.13;;;1.66;100.00
10638;BME280;47007;49.252;8.904;2023-04-06T02:13:11;100056.31;;;1.73;100.00
10638;BME280;47007;49.252;8.904;2023-04-06T02:13:56;100056.19;;;1.74;100.00
10638;BME280;47007;49.252;8.904;2023-04-06T02:14:42;100048.72;;;1.70;100.00
10638;BME280;47007;49.252;8.904;2023-04-06T02:15:24;100060.47;;;1.75;100.00
10638;BME280;47007;49.252;8.904;2023-04-06T02:16:06;100058.56;;;1.77;100.00
10638;BME280;47007;49.252;8.904;2023-04-06T02:16:48;100066.41;;;1.77;100.00
10638;BME280;47007;49.252;8.904;2023-04-06T02:17:30;100024.41;;;1.58;100.00
10638;BME280;47007;49.252;8.904;2023-04-06T02:18:12;100029.94;;;1.65;100.00
10638;BME280;47007;49.252;8.904;2023-04-06T02:18:54;100010.03;;;1.53;100.00
10638;BME280;47007;49.252;8.904;2023-04-06T02:19:36;100052.38;;;1.78;100.00
10638;BME280;47007;49.252;8.904;2023-04-06T02:20:18;100056.78;;;1.78;100.00
10638;BME280;47007;49.252;8.904;2023-04-06T02:21:00;100048.94;;;1.78;100.00
10638;BME280;47007;49.252;8.904;2023-04-06T02:21:42;100041.84;;;1.69;100.00
10638;BME280;47007;49.252;8.904;2023-04-06T02:22:24;100029.13;;;1.64;100.00
10638;BME280;47007;49.252;8.904;2023-04-06T02:23:05;100047.88;;;1.69;100.00
10638;BME280;47007;49.252;8.904;2023-04-06T02:23:47;100046.69;;;1.73;100.00
10638;BME280;47007;49.252;8.904;2023-04-06T02:24:31;100033.41;;;1.65;100.00
10638;BME280;47007;49.252;8.904;2023-04-06T02:25:13;100046.81;;;1.72;100.00
10638;BME280;47007;49.252;8.904;2023-04-06T02:25:55;100041.00;;;1.68;100.00
10638;BME280;47007;49.252;8.904;2023-04-06T02:26:37;100044.22;;;1.72;100.00
10638;BME280;47007;49.252;8.904;2023-04-06T02:27:18;100035.78;;;1.68;100.00
10638;BME280;47007;49.252;8.904;2023-04-06T02:28:01;100024.97;;;1.62;100.00
10638;BME280;47007;49.252;8.904;2023-04-06T02:28:43;100037.78;;;1.65;100.00
10638;BME280;47007;49.252;8.904;2023-04-06T02:29:25;100041.00;;;1.68;100.00
10638;BME280;47007;49.252;8.904;2023-04-06T02:30:07;100012.75;;;1.51;100.00
10638;BME280;47007;49.252;8.904;2023-04-06T02:30:49;100022.84;;;1.56;100.00
10638;BME280;47007;49.252;8.904;2023-04-06T02:31:31;100046.22;;;1.68;100.00
10638;BME280;47007;49.252;8.904;2023-04-06T02:32:15;100036.72;;;1.67;100.00
10638;BME280;47007;49.252;8.904;2023-04-06T02:32:56;100038.75;;;1.64;100.00
10638;BME280;47007;49.252;8.904;2023-04-06T02:33:38;100040.28;;;1.66;100.00
10638;BME280;47007;49.252;8.904;2023-04-06T02:34:21;100039.34;;;1.67;100.00
10638;BME280;47007;49.252;8.904;2023-04-06T02:35:05;100036.84;;;1.66;100.00
10638;BME280;47007;49.252;8.904;2023-04-06T02:35:48;100021.31;;;1.53;100.00
10638;BME280;47007;49.252;8.904;2023-04-06T02:36:30;100024.41;;;1.58;100.00
10638;BME280;47007;49.252;8.904;2023-04-06T02:37:12;100037.06;;;1.63;100.00
10638;BME280;47007;49.252;8.904;2023-04-06T02:37:54;99996.50;;;1.36;100.00
10638;BME280;47007;49.252;8.904;2023-04-06T02:38:35;100031.97;;;1.61;100.00
10638;BME280;47007;49.252;8.904;2023-04-06T02:39:17;100021.53;;;1.50;100.00
10638;BME280;47007;49.252;8.904;2023-04-06T02:39:59;100039.81;;;1.61;100.00
10638;BME280;47007;49.252;8.904;2023-04-06T02:40:42;99988.09;;;1.33;100.00
10638;BME280;47007;49.252;8.904;2023-04-06T02:41:32;100032.94;;;1.60;100.00
10638;BME280;47007;49.252;8.904;2023-04-06T02:42:14;100013.25;;;1.45;100.00
10638;BME280;47007;49.252;8.904;2023-04-06T02:42:58;99973.38;;;1.21;100.00
10638;BME280;47007;49.252;8.904;2023-04-06T02:43:44;100035.06;;;1.55;100.00
10638;BME280;47007;49.252;8.904;2023-04-06T02:44:34;100006.81;;;1.38;100.00
10638;BME280;47007;49.252;8.904;2023-04-06T02:45:16;100028.91;;;1.56;100.00
10638;BME280;47007;49.252;8.904;2023-04-06T02:46:01;100031.28;;;1.59;100.00
10638;BME280;47007;49.252;8.904;2023-04-06T02:46:45;99973.00;;;1.25;100.00
10638;BME280;47007;49.252;8.904;2023-04-06T02:47:27;100017.50;;;1.57;100.00
10638;BME280;47007;49.252;8.904;2023-04-06T02:48:09;100001.13;;;1.44;100.00
10638;BME280;47007;49.252;8.904;2023-04-06T02:48:51;100028.06;;;1.56;100.00
10638;BME280;47007;49.252;8.904;2023-04-06T02:49:32;100024.41;;;1.58;100.00
10638;BME280;47007;49.252;8.904;2023-04-06T02:50:15;100020.84;;;1.59;100.00
10638;BME280;47007;49.252;8.904;2023-04-06T02:51:05;100017.03;;;1.52;100.00
10638;BME280;47007;49.252;8.904;2023-04-06T02:51:47;100030.56;;;1.57;100.00
10638;BME280;47007;49.252;8.904;2023-04-06T02:52:37;100017.84;;;1.53;100.00
10638;BME280;47007;49.252;8.904;2023-04-06T02:53:18;100023.59;;;1.47;100.00
10638;BME280;47007;49.252;8.904;2023-04-06T02:54:00;99962.22;;;1.19;100.00
10638;BME280;47007;49.252;8.904;2023-04-06T02:54:42;100025.91;;;1.61;100.00
10638;BME280;47007;49.252;8.904;2023-04-06T02:55:24;100033.91;;;1.59;100.00
10638;BME280;47007;49.252;8.904;2023-04-06T02:56:06;100036.50;;;1.59;100.00
10638;BME280;47007;49.252;8.904;2023-04-06T02:56:58;100027.13;;;1.57;100.00
10638;BME280;47007;49.252;8.904;2023-04-06T02:57:49;100033.91;;;1.59;100.00
10638;BME280;47007;49.252;8.904;2023-04-06T02:58:33;100012.19;;;1.48;100.00
10638;BME280;47007;49.252;8.904;2023-04-06T02:59:15;99990.72;;;1.33;100.00
10638;BME280;47007;49.252;8.904;2023-04-06T03:00:03;100030.56;;;1.57;100.00
10638;BME280;47007;49.252;8.904;2023-04-06T03:00:52;100024.66;;;1.44;100.00
10638;BME280;47007;49.252;8.904;2023-04-06T03:01:34;100033.53;;;1.53;100.00
10638;BME280;47007;49.252;8.904;2023-04-06T03:02:18;100000.66;;;1.28;100.00
10638;BME280;47007;49.252;8.904;2023-04-06T03:03:00;100020.59;;;1.40;100.00
10638;BME280;47007;49.252;8.904;2023-04-06T03:03:42;100038.31;;;1.48;100.00
10638;BME280;47007;49.252;8.904;2023-04-06T03:04:31;100033.91;;;1.48;100.00
10638;BME280;47007;49.252;8.904;2023-04-06T03:05:14;100022.88;;;1.44;100.00
10638;BME280;47007;49.252;8.904;2023-04-06T03:05:58;100028.53;;;1.50;100.00
10638;BME280;47007;49.252;8.904;2023-04-06T03:06:44;100023.91;;;1.53;100.00
10638;BME280;47007;49.252;8.904;2023-04-06T03:07:35;100026.91;;;1.60;100.00
10638;BME280;47007;49.252;8.904;2023-04-06T03:08:17;100024.41;;;1.58;100.00
10638;BME280;47007;49.252;8.904;2023-04-06T03:09:00;100025.78;;;1.62;100.00
10638;BME280;47007;49.252;8.904;2023-04-06T03:09:41;100035.66;;;1.70;100.00
10638;BME280;47007;49.252;8.904;2023-04-06T03:10:23;100029.22;;;1.74;100.00
10638;BME280;47007;49.252;8.904;2023-04-06T03:11:05;100031.72;;;1.75;100.00
10638;BME280;47007;49.252;8.904;2023-04-06T03:11:52;100003.72;;;1.66;100.00
10638;BME280;47007;49.252;8.904;2023-04-06T03:12:35;100030.41;;;1.81;100.00
10638;BME280;47007;49.252;8.904;2023-04-06T03:13:31;100028.50;;;1.83;100.00
10638;BME280;47007;49.252;8.904;2023-04-06T03:14:12;100024.13;;;1.84;100.00
10638;BME280;47007;49.252;8.904;2023-04-06T03:14:54;100031.84;;;1.85;100.00
10638;BME280;47007;49.252;8.904;2023-04-06T03:15:36;100025.06;;;1.83;100.00
10638;BME280;47007;49.252;8.904;2023-04-06T03:16:26;100027.19;;;1.77;100.00
10638;BME280;47007;49.252;8.904;2023-04-06T03:17:08;100027.94;;;1.68;100.00
10638;BME280;47007;49.252;8.904;2023-04-06T03:17:51;100030.19;;;1.62;100.00
10638;BME280;47007;49.252;8.904;2023-04-06T03:18:56;100029.25;;;1.52;100.00
10638;BME280;47007;49.252;8.904;2023-04-06T03:19:37;100041.75;;;1.48;100.00
10638;BME280;47007;49.252;8.904;2023-04-06T03:20:19;100027.59;;;1.39;100.00
10638;BME280;47007;49.252;8.904;2023-04-06T03:21:01;99990.00;;;1.20;100.00
10638;BME280;47007;49.252;8.904;2023-04-06T03:21:54;100031.41;;;1.47;100.00
10638;BME280;47007;49.252;8.904;2023-04-06T03:22:37;99954.75;;;1.03;100.00
10638;BME280;47007;49.252;8.904;2023-04-06T03:23:21;100031.03;;;1.51;100.00
10638;BME280;47007;49.252;8.904;2023-04-06T03:24:07;100025.38;;;1.46;100.00
10638;BME280;47007;49.252;8.904;2023-04-06T03:24:49;99972.69;;;1.19;100.00
10638;BME280;47007;49.252;8.904;2023-04-06T03:25:31;100035.06;;;1.55;100.00
10638;BME280;47007;49.252;8.904;2023-04-06T03:26:17;100038.41;;;1.57;100.00
10638;BME280;47007;49.252;8.904;2023-04-06T03:26:59;100004.81;;;1.41;100.00
10638;BME280;47007;49.252;8.904;2023-04-06T03:27:42;100033.19;;;1.57;100.00
10638;BME280;47007;49.252;8.904;2023-04-06T03:28:27;100031.31;;;1.48;100.00
10638;BME280;47007;49.252;8.904;2023-04-06T03:29:12;100027.03;;;1.47;100.00
10638;BME280;47007;49.252;8.904;2023-04-06T03:29:54;100038.88;;;1.40;100.00
10638;BME280;47007;49.252;8.904;2023-04-06T03:30:42;100023.44;;;1.26;100.00
10638;BME280;47007;49.252;8.904;2023-04-06T03:31:26;100033.91;;;1.26;100.00
10638;BME280;47007;49.252;8.904;2023-04-06T03:32:12;100027.50;;;1.19;100.00
10638;BME280;47007;49.252;8.904;2023-04-06T03:32:55;100033.91;;;1.15;100.00
10638;BME280;47007;49.252;8.904;2023-04-06T03:33:40;100036.03;;;1.10;100.00
10638;BME280;47007;49.252;8.904;2023-04-06T03:34:26;100032.94;;;1.04;100.00
10638;BME280;47007;49.252;8.904;2023-04-06T03:35:08;100015.72;;;0.91;100.00
10638;BME280;47007;49.252;8.904;2023-04-06T03:35:50;100039.00;;;1.05;100.00
10638;BME280;47007;49.252;8.904;2023-04-06T03:36:34;100017.38;;;0.92;100.00
10638;BME280;47007;49.252;8.904;2023-04-06T03:37:17;100037.94;;;1.07;100.00
10638;BME280;47007;49.252;8.904;2023-04-06T03:38:04;99973.25;;;0.66;100.00
10638;BME280;47007;49.252;8.904;2023-04-06T03:38:46;100030.09;;;1.07;100.00
10638;BME280;47007;49.252;8.904;2023-04-06T03:39:29;100038.41;;;1.13;100.00
10638;BME280;47007;49.252;8.904;2023-04-06T03:40:11;100041.84;;;1.13;100.00
10638;BME280;47007;49.252;8.904;2023-04-06T03:40:52;100040.06;;;1.14;100.00
10638;BME280;47007;49.252;8.904;2023-04-06T03:41:38;100035.91;;;1.00;100.00
10638;BME280;47007;49.252;8.904;2023-04-06T03:42:31;99980.38;;;0.76;100.00
10638;BME280;47007;49.252;8.904;2023-04-06T03:43:21;100038.66;;;1.10;100.00
10638;BME280;47007;49.252;8.904;2023-04-06T03:44:05;100038.78;;;1.08;100.00
10638;BME280;47007;49.252;8.904;2023-04-06T03:44:47;100025.22;;;1.03;100.00
10638;BME280;47007;49.252;8.904;2023-04-06T03:45:29;99987.34;;;0.75;100.00
10638;BME280;47007;49.252;8.904;2023-04-06T03:46:11;100040.06;;;1.14;100.00
10638;BME280;47007;49.252;8.904;2023-04-06T03:46:53;100026.78;;;1.05;100.00
10638;BME280;47007;49.252;8.904;2023-04-06T03:47:35;100043.75;;;1.11;100.00
10638;BME280;47007;49.252;8.904;2023-04-06T03:48:20;100040.56;;;1.07;100.00
10638;BME280;47007;49.252;8.904;2023-04-06T03:49:01;100045.53;;;1.11;100.00
10638;BME280;47007;49.252;8.904;2023-04-06T03:49:43;100038.16;;;1.04;100.00
10638;BME280;47007;49.252;8.904;2023-04-06T03:50:27;100038.78;;;1.08;100.00
10638;BME280;47007;49.252;8.904;2023-04-06T03:51:08;100047.31;;;1.10;100.00
10638;BME280;47007;49.252;8.904;2023-04-06T03:51:50;100030.69;;;1.00;100.00
10638;BME280;47007;49.252;8.904;2023-04-06T03:52:32;100044.22;;;1.05;100.00